AIRPORT MAP

 RUNWAY INFORMATION

Runway 01L Runway length 11811 ft Runway width 148 ft
Runway elevation 656 ft Runway displaced threshold 0 ft Runway heading 16
Runway 19R Runway length 11811 ft Runway width 148 ft
Runway elevation 675 ft Runway displaced threshold 0 ft Runway heading 196
Runway 01R Runway length 9678 ft Runway width 148 ft
Runway elevation 670 ft Runway displaced threshold 0 ft Runway heading 16
Runway 19L Runway length 9678 ft Runway width 148 ft
Runway elevation 681 ft Runway displaced threshold 0 ft Runway heading 196

 AIRPORT FREQUENCIES

Type APP Name APP Frequency 119.975 MHZ
Type ATIS Name ATIS Frequency 126.125 MHZ
Type CLD Name CLNC DEL Frequency 121.6 MHZ
Type DIR Name DIRECTOR Frequency 131.35 MHZ
Type GND Name GND Frequency 121.925 MHZ
Type MISC Name DE ICING Frequency 131.975 MHZ
Type OPS Name WINGOPS Frequency 29.38 MHZ
Type PMSV Name PMSV METRO Frequency 134.175 MHZ
Type TWR Name TWR Frequency 118.3 MHZ

 AIRPORT NEAR NAVIGATION AIDS

Type NDB Name Bergerud Frequency 316 KHZ
Type VOR-DME Name Gardermoen Frequency 115950 KHZ
Type NDB Name Oppaker Frequency 334 KHZ
Type NDB Name Solberg Frequency 414 KHZ
Type NDB Name Soknen Frequency 387 KHZ

 METAR AND TAF INFORMATION

METAR FOR ENGM
ADDS - METARS form results

(0902 UTC 25 January 2020)
Data provider http://aviationweather.gov/metar/data/
 
METAR text: ENGM 250850Z 17003KT 090V200 CAVOK 01/M04 Q1008 NOSIG
Conditions at: ENGM (OSLO/GARDERMOEN , NO) observed 0850 UTC 25 January 2020
Temperature: 1.0°C (34°F)
Dewpoint: -4.0°C (25°F) [RH = 69%]
Pressure (altimeter): 29.76 inches Hg (1008.0 mb)
Winds: from the S (170 degrees) at 3 MPH (3 knots; 1.5 m/s)
Visibility: 6 or more miles (10+ km)
Ceiling: ceiling and visibility are OK
Clouds: unknown
Weather: no significant weather observed at this time

METAR text: ENGM 250820Z VRB02KT CAVOK 00/M05 Q1007 NOSIG
Conditions at: ENGM (OSLO/GARDERMOEN , NO) observed 0820 UTC 25 January 2020
Temperature: 0.0°C (32°F)
Dewpoint: -5.0°C (23°F) [RH = 69%]
Pressure (altimeter): 29.73 inches Hg (1007.0 mb)
Winds: variable direction winds at 2 MPH (2 knots; 1.0 m/s)
Visibility: 6 or more miles (10+ km)
Ceiling: ceiling and visibility are OK
Clouds: unknown
Weather: no significant weather observed at this time

Forecast for: ENGM (OSLO/GARDERMOEN , NO)
Text: TAF ENGM 2506/2606 20008KT CAVOK
Forecast period: 0600 UTC 25 January 2020 to 0600 UTC 26 January 2020
Forecast type: FROM: standard forecast or significant change
Winds: from the SSW (200 degrees) at 9 MPH (8 knots; 4.1 m/s)
Visibility: 6 or more miles 10+ km)
Ceiling: unknown
Clouds: missing
Weather: NSW  (no significant weather)
Text: PROB30 2522/2606 0500 FG VV001
Forecast period: 2200 UTC 25 January 2020 to 0600 UTC 26 January 2020
Forecast type: PROBABLE: 30 percent likelihood of the following during this time
Visibility: 0.31 miles (0.50 km)
Ceiling: indefinite ceiling with vertical visibility of 100 feet AGL
Clouds: obscured sky
Weather: FG  (fog)